Terminal Aerodrome Forecast
Issued by NWS

Home | Current Version | Previous Version | Text Only | Print | Product List | Glossary On
Versions: 1 2 3 4 5 6 7 8 9 10 11 12 13 14
000
FTUS46 KPDT 030520
TAFPSC
TAF
KPSC 030520Z 0306/0406 VRB05KT P6SM FEW150 SCT250
     FM031200 22005KT P6SM FEW250
     FM032100 22008G15KT P6SM SCT150 BKN250
     FM040500 28007KT P6SM SCT250=

USA.gov is the U.S. government's official web portal to all federal, state and local government web resources and services.